Time;durP1;ratioP1;P1;durP2;ratioP2;P2;SDS_P1;SDS_P2;PMS_P1;PMS_P2;Temp;Humidity;BMP_temperature;BMP_pressure;BME280_temperature;BME280_humidity;BME280_pressure;Samples;Min_cycle;Max_cycle;Signal;HPM_P1;HPM_P2
2023/05/14 00:00:27;;;;;;;;;;;;;;;15.77;64.34;101891.56;5062239;28;19923;-64
2023/05/14 00:02:52;;;;;;;;;;;;;;;15.70;64.25;101883.41;5060177;28;20390;-64
2023/05/14 00:05:17;;;;;;;;;;;;;;;15.66;64.19;101887.47;5062387;28;20333;-64
2023/05/14 00:07:42;;;;;;;;;;;;;;;15.62;64.27;101888.84;5062934;28;20282;-64
2023/05/14 00:10:08;;;;;;;;;;;;;;;15.56;64.18;101881.44;5067690;28;20492;-64
2023/05/14 00:12:33;;;;;;;;;;;;;;;15.52;64.60;101890.03;5064659;28;19922;-64
2023/05/14 00:14:58;;;;;;;;;;;;;;;15.45;64.62;101887.22;5061695;28;20344;-64
2023/05/14 00:17:23;;;;;;;;;;;;;;;15.38;64.51;101881.75;5066163;28;19924;-64
2023/05/14 00:19:48;;;;;;;;;;;;;;;15.35;64.96;101882.13;5064332;28;19916;-64
2023/05/14 00:22:15;;;;;;;;;;;;;;;15.34;64.94;101882.28;5058429;28;21342;-64
2023/05/14 00:24:40;;;;;;;;;;;;;;;15.30;64.94;101875.59;5063253;28;19951;-64
2023/05/14 00:27:06;;;;;;;;;;;;;;;15.27;65.45;101875.94;5055470;28;19920;-64
2023/05/14 00:29:31;;;;;;;;;;;;;;;15.25;65.50;101875.28;5062762;28;19920;-64
2023/05/14 00:31:56;;;;;;;;;;;;;;;15.22;65.40;101875.66;5063176;28;19920;-64
2023/05/14 00:34:21;;;;;;;;;;;;;;;15.16;65.42;101872.66;5065032;28;19927;-64
2023/05/14 00:36:46;;;;;;;;;;;;;;;15.13;65.77;101877.53;5061236;28;20007;-64
2023/05/14 00:39:12;;;;;;;;;;;;;;;15.09;65.49;101871.72;5059023;28;19970;-64
2023/05/14 00:41:37;;;;;;;;;;;;;;;15.06;65.80;101863.19;5060411;28;19923;-64
2023/05/14 00:44:03;;;;;;;;;;;;;;;15.01;65.86;101863.69;5061214;28;19916;-65
2023/05/14 00:46:28;;;;;;;;;;;;;;;14.98;66.02;101865.91;5058293;28;20350;-65
2023/05/14 00:48:53;;;;;;;;;;;;;;;14.95;66.30;101868.94;5060234;28;19974;-63
2023/05/14 00:51:18;;;;;;;;;;;;;;;14.89;66.15;101854.41;5062080;28;19928;-63
2023/05/14 00:53:44;;;;;;;;;;;;;;;14.85;66.14;101851.25;5062569;28;19935;-64
2023/05/14 00:56:09;;;;;;;;;;;;;;;14.82;66.24;101861.47;5060813;28;19946;-64
2023/05/14 00:58:35;;;;;;;;;;;;;;;14.79;66.41;101856.47;5062499;28;20019;-64
2023/05/14 01:01:00;;;;;;;;;;;;;;;14.73;66.26;101849.13;5064170;28;20289;-65
2023/05/14 01:03:25;;;;;;;;;;;;;;;14.71;66.33;101856.47;5057869;28;19921;-64
2023/05/14 01:06:08;;;;;;;;;;;;;;;14.67;66.58;101858.66;5062784;28;20401;-64
2023/05/14 01:08:52;;;;;;;;;;;;;;;14.61;66.88;101855.84;5066030;28;20015;-64
2023/05/14 01:11:27;;;;;;;;;;;;;;;14.55;67.00;101858.22;5051886;28;19948;-63
2023/05/14 01:14:00;;;;;;;;;;;;;;;14.53;66.86;101856.72;5063488;28;20329;-64
2023/05/14 01:16:26;;;;;;;;;;;;;;;14.48;67.00;101851.06;5065449;28;19931;-63
2023/05/14 01:18:53;;;;;;;;;;;;;;;14.47;67.03;101854.75;5067218;28;19974;-63
2023/05/14 01:21:27;;;;;;;;;;;;;;;14.44;67.28;101852.38;5066236;28;20405;-64
2023/05/14 01:23:52;;;;;;;;;;;;;;;14.39;67.65;101846.69;5061878;28;19920;-63
2023/05/14 01:26:17;;;;;;;;;;;;;;;14.34;67.70;101844.53;5061421;28;19913;-64
2023/05/14 01:28:44;;;;;;;;;;;;;;;14.31;67.71;101844.03;5062944;28;20424;-64
2023/05/14 01:31:15;;;;;;;;;;;;;;;14.26;67.75;101848.06;5066535;28;19912;-64
2023/05/14 01:33:42;;;;;;;;;;;;;;;14.22;67.79;101844.06;5065276;28;19917;-64
2023/05/14 01:36:08;;;;;;;;;;;;;;;14.20;68.14;101845.25;5056560;28;20463;-63
2023/05/14 01:38:34;;;;;;;;;;;;;;;14.16;67.96;101841.22;5063185;28;19920;-63
2023/05/14 01:41:00;;;;;;;;;;;;;;;14.12;68.44;101835.38;5059828;28;19983;-63
2023/05/14 01:43:25;;;;;;;;;;;;;;;14.08;68.65;101842.06;5062100;28;20370;-64
2023/05/14 01:45:51;;;;;;;;;;;;;;;14.06;68.47;101845.91;5066854;28;20003;-63
2023/05/14 01:48:16;;;;;;;;;;;;;;;14.03;68.47;101835.56;5068549;28;20414;-63
2023/05/14 01:50:41;;;;;;;;;;;;;;;14.00;68.70;101826.06;5059835;28;20408;-63
2023/05/14 01:53:06;;;;;;;;;;;;;;;13.98;68.93;101838.75;5065133;28;20512;-64
2023/05/14 01:55:32;;;;;;;;;;;;;;;13.98;69.07;101835.25;5063541;28;19940;-64
2023/05/14 01:57:57;;;;;;;;;;;;;;;13.97;69.15;101833.59;5069118;28;19921;-63
2023/05/14 02:00:23;;;;;;;;;;;;;;;13.97;68.65;101833.59;5066145;28;19916;-63
2023/05/14 02:02:49;;;;;;;;;;;;;;;13.96;69.20;101827.41;5063567;28;19955;-64
2023/05/14 02:05:14;;;;;;;;;;;;;;;13.93;69.20;101839.25;5064011;28;19944;-63
2023/05/14 02:07:39;;;;;;;;;;;;;;;13.91;69.09;101835.09;5062503;28;20035;-62
2023/05/14 02:10:04;;;;;;;;;;;;;;;13.88;69.44;101830.09;5062759;28;19916;-63
2023/05/14 02:12:30;;;;;;;;;;;;;;;13.85;69.64;101836.56;5063198;28;19923;-63
2023/05/14 02:14:55;;;;;;;;;;;;;;;13.84;69.73;101832.25;5059587;28;19917;-63
2023/05/14 02:17:20;;;;;;;;;;;;;;;13.82;69.61;101834.25;5064047;28;19920;-63
2023/05/14 02:19:45;;;;;;;;;;;;;;;13.80;69.62;101822.06;5064345;28;20378;-63
2023/05/14 02:22:11;;;;;;;;;;;;;;;13.79;70.20;101823.91;5066867;28;19927;-63
2023/05/14 02:24:36;;;;;;;;;;;;;;;13.79;70.33;101823.06;5067740;28;19920;-63
2023/05/14 02:27:01;;;;;;;;;;;;;;;13.77;70.14;101825.06;5063864;28;19924;-63
2023/05/14 02:29:26;;;;;;;;;;;;;;;13.76;70.51;101820.75;5067417;28;19931;-63
2023/05/14 02:31:51;;;;;;;;;;;;;;;13.74;70.36;101830.75;5067174;28;19920;-63
2023/05/14 02:34:16;;;;;;;;;;;;;;;13.70;70.41;101822.25;5067885;28;19966;-63
2023/05/14 02:36:42;;;;;;;;;;;;;;;13.70;70.48;101826.75;5066609;28;19917;-63
2023/05/14 02:39:07;;;;;;;;;;;;;;;13.66;70.92;101828.91;5063809;28;19990;-63
2023/05/14 02:41:32;;;;;;;;;;;;;;;13.61;70.96;101826.75;5066524;28;19963;-63
2023/05/14 02:43:57;;;;;;;;;;;;;;;13.59;70.68;101819.91;5066241;28;19921;-63
2023/05/14 02:46:22;;;;;;;;;;;;;;;13.54;70.90;101824.91;5065298;28;19923;-63
2023/05/14 02:48:48;;;;;;;;;;;;;;;13.50;71.06;101819.06;5058038;28;19933;-63
2023/05/14 02:51:13;;;;;;;;;;;;;;;13.45;71.37;101818.72;5069385;28;20382;-63
2023/05/14 02:53:38;;;;;;;;;;;;;;;13.41;71.47;101827.22;5068188;28;20342;-63
2023/05/14 02:56:03;;;;;;;;;;;;;;;13.37;71.53;101824.06;5062394;28;19963;-63
2023/05/14 02:58:29;;;;;;;;;;;;;;;13.33;71.38;101828.06;5061676;28;19925;-63
2023/05/14 03:00:54;;;;;;;;;;;;;;;13.29;71.23;101814.19;5062391;28;19924;-63
2023/05/14 03:03:19;;;;;;;;;;;;;;;13.28;71.48;101809.00;5069424;28;19966;-63
2023/05/14 03:05:45;;;;;;;;;;;;;;;13.26;71.61;101809.19;5063659;28;19916;-63
2023/05/14 03:08:10;;;;;;;;;;;;;;;13.24;71.60;101800.50;5063913;28;19924;-63
2023/05/14 03:10:35;;;;;;;;;;;;;;;13.21;71.88;101808.84;5062980;28;19916;-63
2023/05/14 03:13:01;;;;;;;;;;;;;;;13.20;71.92;101814.34;5068178;28;19917;-63
2023/05/14 03:15:26;;;;;;;;;;;;;;;13.17;72.25;101807.50;5064328;28;20023;-63
2023/05/14 03:17:51;;;;;;;;;;;;;;;13.15;72.39;101809.47;5069506;28;19916;-63
2023/05/14 03:20:16;;;;;;;;;;;;;;;13.13;71.91;101818.63;5058989;28;19923;-63
2023/05/14 03:22:42;;;;;;;;;;;;;;;13.09;72.40;101804.81;5060093;28;20293;-63
2023/05/14 03:25:07;;;;;;;;;;;;;;;13.06;72.81;101807.81;5064177;28;19913;-63
2023/05/14 03:27:33;;;;;;;;;;;;;;;13.03;72.95;101805.47;5061521;28;20431;-63
2023/05/14 03:29:58;;;;;;;;;;;;;;;12.99;73.09;101810.25;5069117;28;19956;-63
2023/05/14 03:32:23;;;;;;;;;;;;;;;12.96;72.88;101793.75;5065343;28;19924;-63
2023/05/14 03:34:49;;;;;;;;;;;;;;;12.93;72.88;101794.09;5063465;28;19924;-63
2023/05/14 03:37:14;;;;;;;;;;;;;;;12.91;73.24;101796.91;5064207;28;19913;-63
2023/05/14 03:39:39;;;;;;;;;;;;;;;12.82;73.25;101792.56;5063386;28;19956;-63
2023/05/14 03:42:04;;;;;;;;;;;;;;;12.84;73.22;101800.41;5064275;28;19927;-63
2023/05/14 03:44:29;;;;;;;;;;;;;;;12.80;73.29;101791.88;5060908;28;19959;-63
2023/05/14 03:46:55;;;;;;;;;;;;;;;12.76;73.63;101798.53;5065827;28;19963;-63
2023/05/14 03:49:20;;;;;;;;;;;;;;;12.71;73.51;101796.34;5067254;28;19923;-63
2023/05/14 03:51:45;;;;;;;;;;;;;;;12.69;73.60;101801.00;5062771;28;19916;-63
2023/05/14 03:54:10;;;;;;;;;;;;;;;12.67;73.53;101791.50;5061987;28;20473;-63
2023/05/14 03:56:35;;;;;;;;;;;;;;;12.64;73.60;101797.16;5067087;28;20522;-63
2023/05/14 03:59:00;;;;;;;;;;;;;;;12.61;73.78;101792.97;5062559;28;19923;-63
2023/05/14 04:01:26;;;;;;;;;;;;;;;12.59;74.21;101797.63;5065345;28;19920;-63
2023/05/14 04:03:51;;;;;;;;;;;;;;;12.57;74.06;101793.47;5066446;28;20007;-63
2023/05/14 04:06:16;;;;;;;;;;;;;;;12.56;74.19;101797.13;5066823;28;19925;-63
2023/05/14 04:08:41;;;;;;;;;;;;;;;12.53;74.16;101792.94;5058282;28;19917;-63
2023/05/14 04:11:07;;;;;;;;;;;;;;;12.52;74.39;101801.09;5069475;28;19966;-63
2023/05/14 04:13:32;;;;;;;;;;;;;;;12.48;74.55;101795.25;5066714;28;19916;-63
2023/05/14 04:15:57;;;;;;;;;;;;;;;12.45;74.42;101795.59;5060852;28;19924;-63
2023/05/14 04:18:22;;;;;;;;;;;;;;;12.41;74.88;101787.06;5063546;28;20412;-63
2023/05/14 04:20:47;;;;;;;;;;;;;;;12.40;74.84;101785.38;5058599;28;19995;-63
2023/05/14 04:23:13;;;;;;;;;;;;;;;12.38;75.06;101783.88;5065240;28;20011;-63
2023/05/14 04:25:38;;;;;;;;;;;;;;;12.37;75.22;101787.53;5062262;28;19916;-63
2023/05/14 04:28:03;;;;;;;;;;;;;;;12.37;75.33;101790.19;5061014;28;19959;-63
2023/05/14 04:30:28;;;;;;;;;;;;;;;12.37;75.00;101790.19;5061451;28;19916;-63
2023/05/14 04:32:53;;;;;;;;;;;;;;;12.36;75.25;101796.53;5066502;28;19920;-62
2023/05/14 04:35:19;;;;;;;;;;;;;;;12.35;75.59;101800.19;5066877;28;20401;-63
2023/05/14 04:37:44;;;;;;;;;;;;;;;12.34;75.68;101793.19;5057626;28;20019;-63
2023/05/14 04:40:12;;;;;;;;;;;;;;;12.34;75.95;101798.50;5058360;28;19917;-63
2023/05/14 04:42:37;;;;;;;;;;;;;;;12.33;75.85;101799.50;5064878;28;19916;-63
2023/05/14 04:45:04;;;;;;;;;;;;;;;12.32;75.91;101792.50;5066196;28;19962;-63
2023/05/14 04:47:29;;;;;;;;;;;;;;;12.31;76.15;101793.50;5064377;28;19921;-63
2023/05/14 04:49:54;;;;;;;;;;;;;;;12.30;76.01;101802.47;5063357;28;19939;-63
2023/05/14 04:52:19;;;;;;;;;;;;;;;12.30;76.40;101798.00;5060925;28;20289;-63
2023/05/14 04:54:45;;;;;;;;;;;;;;;12.29;76.17;101793.66;5064818;28;19921;-64
2023/05/14 04:57:10;;;;;;;;;;;;;;;12.32;76.70;101800.50;5057751;28;19920;-63
2023/05/14 04:59:35;;;;;;;;;;;;;;;12.33;76.43;101792.34;5062625;28;19923;-63
2023/05/14 05:02:00;;;;;;;;;;;;;;;12.36;76.67;101796.53;5066373;28;19924;-63
2023/05/14 05:04:26;;;;;;;;;;;;;;;12.36;76.93;101792.03;5068045;28;19921;-63
2023/05/14 05:06:51;;;;;;;;;;;;;;;12.39;77.09;101793.53;5061243;28;19924;-62
2023/05/14 05:09:17;;;;;;;;;;;;;;;12.41;77.45;101799.53;5067042;28;19960;-63
2023/05/14 05:11:42;;;;;;;;;;;;;;;12.44;77.48;101796.59;5066064;28;19924;-63
2023/05/14 05:14:08;;;;;;;;;;;;;;;12.48;77.75;101797.94;5059285;28;19917;-63
2023/05/14 05:16:33;;;;;;;;;;;;;;;12.53;77.63;101797.44;5061041;28;19924;-63
2023/05/14 05:18:58;;;;;;;;;;;;;;;12.57;77.99;101794.28;5067886;28;19958;-63
2023/05/14 05:21:23;;;;;;;;;;;;;;;12.60;78.18;101793.97;5058615;28;19920;-63
2023/05/14 05:23:48;;;;;;;;;;;;;;;12.64;78.23;101800.66;5068988;28;19917;-63
2023/05/14 05:26:14;;;;;;;;;;;;;;;12.66;77.71;101795.16;5066047;28;19924;-62
2023/05/14 05:28:39;;;;;;;;;;;;;;;12.67;78.08;101789.66;5063255;28;19921;-63
2023/05/14 05:31:04;;;;;;;;;;;;;;;12.70;77.87;101804.50;5064157;28;20275;-63
2023/05/14 05:33:29;;;;;;;;;;;;;;;12.74;78.29;101797.03;5063904;28;20427;-63
2023/05/14 05:35:55;;;;;;;;;;;;;;;12.78;78.37;101807.22;5062884;28;19916;-63
2023/05/14 05:38:20;;;;;;;;;;;;;;;12.81;78.73;101800.72;5063576;28;20037;-64
2023/05/14 05:40:45;;;;;;;;;;;;;;;12.83;78.42;101799.56;5061556;28;19923;-62
2023/05/14 05:43:12;;;;;;;;;;;;;;;12.88;78.71;101809.72;5062392;28;19927;-63
2023/05/14 05:45:37;;;;;;;;;;;;;;;12.92;78.46;101805.75;5064251;28;19920;-63
2023/05/14 05:48:03;;;;;;;;;;;;;;;12.92;78.85;101814.56;5068027;28;20396;-63
2023/05/14 05:50:30;;;;;;;;;;;;;;;12.93;78.99;101821.56;5058560;28;19913;-63
2023/05/14 05:52:55;;;;;;;;;;;;;;;12.98;79.05;101818.41;5065284;28;19917;-63
2023/05/14 05:55:20;;;;;;;;;;;;;;;13.02;78.88;101819.78;5069868;28;19931;-63
2023/05/14 05:57:46;;;;;;;;;;;;;;;13.06;78.73;101818.47;5067202;28;19916;-63
2023/05/14 06:00:12;;;;;;;;;;;;;;;13.10;79.21;101821.63;5061342;28;19948;-63
2023/05/14 06:02:37;;;;;;;;;;;;;;;13.13;79.27;101819.47;5068756;28;19928;-63
2023/05/14 06:05:02;;;;;;;;;;;;;;;13.17;79.17;101827.97;5065496;28;19917;-63
2023/05/14 06:07:27;;;;;;;;;;;;;;;13.17;78.99;101827.97;5066004;28;19916;-63
2023/05/14 06:09:53;;;;;;;;;;;;;;;13.17;78.24;101827.97;5060190;28;20267;-64
2023/05/14 06:12:18;;;;;;;;;;;;;;;13.17;78.54;101828.84;5067053;28;19948;-63
2023/05/14 06:14:43;;;;;;;;;;;;;;;13.19;78.20;101834.00;5069358;28;20310;-63
2023/05/14 06:17:08;;;;;;;;;;;;;;;13.20;78.37;101838.34;5061770;28;19920;-63
2023/05/14 06:19:33;;;;;;;;;;;;;;;13.19;78.72;101829.50;5061268;28;19917;-63
2023/05/14 06:21:58;;;;;;;;;;;;;;;13.18;78.23;101833.19;5064915;28;19978;-63
2023/05/14 06:24:24;;;;;;;;;;;;;;;13.22;78.47;101842.53;5071297;28;19920;-63
2023/05/14 06:26:49;;;;;;;;;;;;;;;13.27;78.56;101837.53;5069041;28;20019;-63
2023/05/14 06:29:14;;;;;;;;;;;;;;;13.29;78.55;101832.84;5066264;28;19921;-63
2023/05/14 06:31:39;;;;;;;;;;;;;;;13.35;78.70;101833.22;5060435;28;20015;-63
2023/05/14 06:34:04;;;;;;;;;;;;;;;13.37;78.73;101848.06;5063697;28;19959;-64
2023/05/14 06:36:30;;;;;;;;;;;;;;;13.42;78.61;101842.25;5069051;28;19919;-64
2023/05/14 06:38:55;;;;;;;;;;;;;;;13.48;79.24;101842.41;5063425;28;20396;-64
2023/05/14 06:41:20;;;;;;;;;;;;;;;13.54;79.16;101844.41;5060802;28;19920;-64
2023/05/14 06:43:45;;;;;;;;;;;;;;;13.60;79.28;101841.09;5056330;28;19912;-64
2023/05/14 06:46:10;;;;;;;;;;;;;;;13.61;79.25;101836.59;5067518;28;19989;-64
2023/05/14 06:48:35;;;;;;;;;;;;;;;13.61;79.26;101837.44;5067101;28;19921;-64
2023/05/14 06:51:02;;;;;;;;;;;;;;;13.61;78.92;101828.59;5069011;28;20369;-64
2023/05/14 06:53:27;;;;;;;;;;;;;;;13.60;79.05;101833.09;5070798;28;20320;-64
2023/05/14 06:55:52;;;;;;;;;;;;;;;13.63;79.20;101827.41;5069491;28;20424;-64
2023/05/14 06:58:17;;;;;;;;;;;;;;;13.72;79.32;101832.75;5061995;28;19917;-64
2023/05/14 07:00:42;;;;;;;;;;;;;;;13.79;79.41;101831.91;5066393;28;20409;-64
2023/05/14 07:03:08;;;;;;;;;;;;;;;13.84;79.94;101834.06;5063915;28;20000;-64
2023/05/14 07:05:33;;;;;;;;;;;;;;;13.95;80.14;101836.41;5057410;28;19913;-65
2023/05/14 07:07:58;;;;;;;;;;;;;;;14.07;79.84;101831.56;5063050;28;19928;-65
2023/05/14 07:10:23;;;;;;;;;;;;;;;14.14;79.72;101844.06;5067385;28;19958;-65
2023/05/14 07:12:49;;;;;;;;;;;;;;;14.21;79.90;101833.56;5061702;28;19917;-65
2023/05/14 07:15:14;;;;;;;;;;;;;;;14.30;79.61;101832.53;5067729;28;19920;-63
2023/05/14 07:17:39;;;;;;;;;;;;;;;14.38;79.60;101832.50;5055061;28;19916;-63
2023/05/14 07:20:05;;;;;;;;;;;;;;;14.44;79.39;101842.53;5057859;28;19972;-64
2023/05/14 07:22:30;;;;;;;;;;;;;;;14.45;78.85;101841.53;5064813;28;19959;-64
2023/05/14 07:24:55;;;;;;;;;;;;;;;14.47;78.99;101842.22;5065172;28;19924;-62
2023/05/14 07:27:21;;;;;;;;;;;;;;;14.55;78.74;101844.00;5062416;28;19918;-63
2023/05/14 07:29:46;;;;;;;;;;;;;;;14.61;78.69;101837.13;5065705;28;19924;-63
2023/05/14 07:32:11;;;;;;;;;;;;;;;14.66;78.66;101837.44;5063842;28;20019;-63
2023/05/14 07:34:36;;;;;;;;;;;;;;;14.71;78.55;101833.25;5063000;28;19920;-62
2023/05/14 07:37:01;;;;;;;;;;;;;;;14.78;78.60;101833.41;5060730;28;19920;-63
2023/05/14 07:39:27;;;;;;;;;;;;;;;14.83;77.60;101839.06;5066660;28;20421;-63
2023/05/14 07:41:53;;;;;;;;;;;;;;;14.84;77.88;101827.34;5054863;28;19974;-64
2023/05/14 07:44:19;;;;;;;;;;;;;;;14.91;77.83;101830.16;5062022;28;19920;-63
2023/05/14 07:46:44;;;;;;;;;;;;;;;14.99;78.07;101830.94;5055199;28;19917;-63
2023/05/14 07:49:09;;;;;;;;;;;;;;;15.05;77.86;101824.91;5062308;28;19916;-63
2023/05/14 07:51:34;;;;;;;;;;;;;;;15.07;77.38;101822.06;5062248;28;19920;-64
2023/05/14 07:53:59;;;;;;;;;;;;;;;15.11;77.55;101821.53;5065507;28;19913;-63
2023/05/14 07:56:25;;;;;;;;;;;;;;;15.18;77.27;101819.81;5067635;28;20511;-64
2023/05/14 07:58:50;;;;;;;;;;;;;;;15.24;77.19;101814.75;5061813;28;20426;-64
2023/05/14 08:01:15;;;;;;;;;;;;;;;15.31;76.94;101811.19;5062226;28;20378;-63
2023/05/14 08:03:40;;;;;;;;;;;;;;;15.41;76.88;101805.63;5061559;28;19959;-64
2023/05/14 08:06:06;;;;;;;;;;;;;;;15.52;76.78;101805.19;5060479;28;19956;-65
2023/05/14 08:08:31;;;;;;;;;;;;;;;15.64;76.66;101806.47;5056128;28;19921;-64
2023/05/14 08:10:56;;;;;;;;;;;;;;;15.75;76.06;101811.38;5059953;28;19929;-64
2023/05/14 08:13:21;;;;;;;;;;;;;;;15.89;76.42;101811.59;5060760;28;19925;-63
2023/05/14 08:15:47;;;;;;;;;;;;;;;16.00;75.81;101813.84;5056501;28;19928;-64
2023/05/14 08:18:12;;;;;;;;;;;;;;;16.10;75.34;101811.72;5058692;28;20439;-64
2023/05/14 08:20:37;;;;;;;;;;;;;;;16.16;74.33;101811.00;5060684;28;19920;-65
2023/05/14 08:23:02;;;;;;;;;;;;;;;16.20;74.36;101806.94;5059387;28;19940;-65
2023/05/14 08:25:27;;;;;;;;;;;;;;;16.32;74.56;101813.50;5060092;28;19998;-65
2023/05/14 08:27:53;;;;;;;;;;;;;;;16.45;74.24;101804.81;5064680;28;19916;-64
2023/05/14 08:30:18;;;;;;;;;;;;;;;16.53;73.13;101809.25;5064821;28;20780;-64
2023/05/14 08:32:43;;;;;;;;;;;;;;;16.58;72.87;101818.41;5056855;28;19917;-64
2023/05/14 08:35:08;;;;;;;;;;;;;;;16.64;72.94;101816.81;5062979;28;20374;-65
2023/05/14 08:37:34;;;;;;;;;;;;;;;16.74;72.58;101814.72;5055017;28;19908;-64
2023/05/14 08:39:59;;;;;;;;;;;;;;;16.88;72.52;101813.03;5060091;28;19966;-63
2023/05/14 08:42:25;;;;;;;;;;;;;;;16.95;72.38;101816.63;5066877;28;19912;-63
2023/05/14 08:45:00;;;;;;;;;;;;;;;16.94;71.38;101818.47;5062231;28;19916;-62
2023/05/14 08:47:27;;;;;;;;;;;;;;;16.96;71.37;101805.69;5065179;28;19942;-63
2023/05/14 08:49:57;;;;;;;;;;;;;;;17.01;71.26;101805.13;5061934;28;19929;-62
2023/05/14 08:52:22;;;;;;;;;;;;;;;17.06;71.12;101810.78;5060114;28;19924;-62
2023/05/14 08:54:49;;;;;;;;;;;;;;;17.11;70.25;101797.63;5062548;28;19916;-63
2023/05/14 08:57:16;;;;;;;;;;;;;;;17.11;70.30;101807.53;5063820;28;19916;-62
2023/05/14 08:59:42;;;;;;;;;;;;;;;17.18;70.28;101805.72;5059522;28;20343;-62
2023/05/14 09:02:08;;;;;;;;;;;;;;;17.31;69.93;101800.50;5057984;28;19916;-63
2023/05/14 09:04:35;;;;;;;;;;;;;;;17.45;69.97;101794.25;5059822;28;20270;-62
2023/05/14 09:07:01;;;;;;;;;;;;;;;17.63;69.64;101789.22;5061736;28;20011;-62
2023/05/14 09:09:26;;;;;;;;;;;;;;;17.82;69.36;101793.13;5063256;28;20019;-63
2023/05/14 09:11:51;;;;;;;;;;;;;;;17.98;69.54;101789.34;5063174;28;20431;-62
2023/05/14 09:14:17;;;;;;;;;;;;;;;18.19;69.55;101785.72;5061722;28;19931;-63
2023/05/14 09:16:47;;;;;;;;;;;;;;;18.41;68.95;101792.69;5057763;28;19947;-62
2023/05/14 09:19:12;;;;;;;;;;;;;;;18.59;67.63;101786.78;5062909;28;19960;-62
2023/05/14 09:21:39;;;;;;;;;;;;;;;18.73;66.53;101780.44;5055332;28;19947;-61
2023/05/14 09:24:04;;;;;;;;;;;;;;;18.91;66.62;101769.13;5067032;28;20390;-61
2023/05/14 09:26:30;;;;;;;;;;;;;;;19.08;66.30;101777.66;5065366;28;19924;-62
2023/05/14 09:29:00;;;;;;;;;;;;;;;19.24;66.54;101784.53;5053203;28;20109;-62
2023/05/14 09:31:26;;;;;;;;;;;;;;;19.40;65.73;101784.16;5061691;28;19920;-63
2023/05/14 09:33:51;;;;;;;;;;;;;;;19.40;65.44;101774.22;5063229;28;19925;-63
2023/05/14 09:36:17;;;;;;;;;;;;;;;19.46;65.30;101770.69;5056890;28;19921;-62
2023/05/14 09:38:42;;;;;;;;;;;;;;;19.55;64.41;101775.88;5060641;28;19917;-62
2023/05/14 09:41:07;;;;;;;;;;;;;;;19.58;63.08;101770.91;5058404;28;19923;-63
2023/05/14 09:43:33;;;;;;;;;;;;;;;19.65;62.49;101765.50;5058337;28;19955;-63
2023/05/14 09:45:58;;;;;;;;;;;;;;;19.75;62.39;101769.47;5060705;28;19932;-63
2023/05/14 09:48:24;;;;;;;;;;;;;;;19.88;62.29;101768.63;5060850;28;19920;-64
2023/05/14 09:50:50;;;;;;;;;;;;;;;20.09;62.56;101764.84;5061190;28;19917;-63
2023/05/14 09:53:16;;;;;;;;;;;;;;;20.22;61.59;101755.88;5058805;28;20297;-62
2023/05/14 09:55:42;;;;;;;;;;;;;;;20.26;60.87;101754.44;5065760;28;19912;-62
2023/05/14 09:58:07;;;;;;;;;;;;;;;20.27;60.58;101762.34;5064342;28;19924;-62
2023/05/14 10:00:33;;;;;;;;;;;;;;;20.30;59.13;101755.69;5064077;28;19924;-62
2023/05/14 10:03:03;;;;;;;;;;;;;;;20.33;58.88;101752.56;5063391;28;20540;-62
2023/05/14 10:05:28;;;;;;;;;;;;;;;20.47;59.34;101750.66;5063873;28;19917;-62
2023/05/14 10:07:55;;;;;;;;;;;;;;;20.66;59.42;101755.16;5068805;28;19923;-62
2023/05/14 10:10:23;;;;;;;;;;;;;;;20.88;59.51;101761.06;5059700;28;19962;-62
2023/05/14 10:12:51;;;;;;;;;;;;;;;21.05;58.71;101759.50;5061504;28;20348;-62
2023/05/14 10:15:18;;;;;;;;;;;;;;;21.14;57.75;101751.97;5067528;28;19920;-63
2023/05/14 10:17:47;;;;;;;;;;;;;;;21.20;57.75;101746.53;5067604;28;19947;-62
2023/05/14 10:20:14;;;;;;;;;;;;;;;21.36;57.35;101753.28;5066663;28;19916;-63
2023/05/14 10:22:39;;;;;;;;;;;;;;;21.53;56.73;101750.88;5072346;28;19919;-62
2023/05/14 10:25:05;;;;;;;;;;;;;;;21.67;55.25;101752.41;5070434;28;19917;-63
2023/05/14 10:27:30;;;;;;;;;;;;;;;21.77;54.90;101752.75;5060376;28;19981;-63
2023/05/14 10:29:56;;;;;;;;;;;;;;;21.88;54.00;101748.47;5059799;28;19929;-63
2023/05/14 10:32:25;;;;;;;;;;;;;;;22.02;54.16;101738.34;5068532;28;19921;-63
2023/05/14 10:34:51;;;;;;;;;;;;;;;22.09;53.87;101739.13;5068963;28;19917;-62
2023/05/14 10:37:17;;;;;;;;;;;;;;;22.23;54.39;101740.63;5066586;28;19923;-63
2023/05/14 10:39:45;;;;;;;;;;;;;;;22.38;54.31;101730.25;5063533;28;19925;-63
2023/05/14 10:42:12;;;;;;;;;;;;;;;22.45;52.29;101730.16;5063960;28;19978;-63
2023/05/14 10:44:40;;;;;;;;;;;;;;;22.46;53.14;101727.22;5062604;28;20527;-67
2023/05/14 10:47:06;;;;;;;;;;;;;;;22.53;54.02;101722.56;5069449;28;19916;-63
2023/05/14 10:49:32;;;;;;;;;;;;;;;22.67;52.81;101723.22;5070019;28;19956;-64
2023/05/14 10:51:58;;;;;;;;;;;;;;;22.80;51.83;101716.78;5069423;28;19960;-63
2023/05/14 10:54:23;;;;;;;;;;;;;;;22.92;51.94;101728.53;5068073;28;19917;-64
2023/05/14 10:56:48;;;;;;;;;;;;;;;22.99;50.31;101729.25;5067268;28;20580;-62
2023/05/14 10:59:15;;;;;;;;;;;;;;;22.88;49.55;101727.34;5068688;28;19966;-63
2023/05/14 11:01:41;;;;;;;;;;;;;;;22.76;50.25;101726.41;5069086;28;20305;-63
2023/05/14 11:04:06;;;;;;;;;;;;;;;22.84;49.80;101713.44;5067231;28;19912;-63
2023/05/14 11:06:31;;;;;;;;;;;;;;;23.00;50.16;101720.06;5065742;28;19924;-63
2023/05/14 11:08:59;;;;;;;;;;;;;;;23.14;49.33;101715.28;5063653;28;19920;-63
2023/05/14 11:11:25;;;;;;;;;;;;;;;23.24;48.63;101706.56;5063457;28;19920;-63
2023/05/14 11:13:52;;;;;;;;;;;;;;;23.25;48.00;101705.50;5067742;28;19961;-63
2023/05/14 11:16:18;;;;;;;;;;;;;;;23.25;47.25;101705.50;5065472;28;19924;-64
2023/05/14 11:18:43;;;;;;;;;;;;;;;23.31;47.40;101705.41;5069413;28;19912;-63
2023/05/14 11:21:09;;;;;;;;;;;;;;;23.31;46.96;101704.56;5055474;28;19920;-64
2023/05/14 11:23:34;;;;;;;;;;;;;;;23.23;47.18;101702.22;5067775;28;19916;-63
2023/05/14 11:25:59;;;;;;;;;;;;;;;23.31;47.19;101699.97;5056219;28;20003;-63
2023/05/14 11:28:25;;;;;;;;;;;;;;;23.41;47.43;101689.38;5055803;28;20306;-63
2023/05/14 11:30:51;;;;;;;;;;;;;;;23.44;46.94;101701.66;5055220;28;19921;-63
2023/05/14 11:33:16;;;;;;;;;;;;;;;23.44;46.72;101696.22;5054080;28;19913;-63
2023/05/14 11:35:44;;;;;;;;;;;;;;;23.35;45.96;101692.19;5059804;28;20412;-63
2023/05/14 11:38:12;;;;;;;;;;;;;;;23.15;46.39;101687.13;5061362;28;19928;-63
2023/05/14 11:40:38;;;;;;;;;;;;;;;23.13;45.90;101690.06;5060842;28;20359;-63
2023/05/14 11:43:03;;;;;;;;;;;;;;;23.13;46.47;101681.09;5061963;28;19916;-61
2023/05/14 11:45:29;;;;;;;;;;;;;;;23.11;45.64;101685.91;5062665;28;19919;-62
2023/05/14 11:47:54;;;;;;;;;;;;;;;23.11;46.11;101681.31;5057550;28;20370;-63
2023/05/14 11:50:20;;;;;;;;;;;;;;;23.17;46.68;101679.59;5052388;28;19967;-63
2023/05/14 11:52:47;;;;;;;;;;;;;;;23.32;47.57;101668.28;5067482;28;19912;-63
2023/05/14 11:55:12;;;;;;;;;;;;;;;23.54;47.00;101677.47;5067094;28;19921;-63
2023/05/14 11:57:38;;;;;;;;;;;;;;;23.73;46.79;101673.63;5068557;28;20589;-63
2023/05/14 12:00:06;;;;;;;;;;;;;;;23.79;45.63;101661.81;5064124;28;19927;-62
2023/05/14 12:02:31;;;;;;;;;;;;;;;23.92;45.35;101668.03;5066124;28;19967;-62
2023/05/14 12:04:59;;;;;;;;;;;;;;;23.72;44.42;101669.25;5065934;28;19939;-62
2023/05/14 12:07:27;;;;;;;;;;;;;;;23.66;45.17;101664.75;5059408;28;19971;-62
2023/05/14 12:09:52;;;;;;;;;;;;;;;23.68;45.73;101656.38;5068067;28;20343;-62
2023/05/14 12:12:19;;;;;;;;;;;;;;;23.68;44.17;101650.94;5060648;28;20443;-63
2023/05/14 12:14:45;;;;;;;;;;;;;;;23.60;45.79;101651.31;5059877;28;19917;-63
2023/05/14 12:17:21;;;;;;;;;;;;;;;23.76;45.28;101650.63;5062244;28;19939;-63
2023/05/14 12:19:47;;;;;;;;;;;;;;;23.93;45.91;101651.50;5065739;28;19986;-64
2023/05/14 12:22:13;;;;;;;;;;;;;;;24.13;45.13;101653.00;5066442;28;19920;-63
2023/05/14 12:24:39;;;;;;;;;;;;;;;24.21;43.70;101650.72;5069200;28;19920;-63
2023/05/14 12:27:04;;;;;;;;;;;;;;;24.23;43.01;101656.72;5064387;28;19973;-63